Latest Weather Observations for Bushy Park

IDT60801

Issued at 11:31 pm EDT Thursday 11 February 2016 (issued every 30 minutes, with the page automatically refreshed every 10 minutes)

About weather observations | Map of weather stations | Latest weather observations for TAS | Other Formats
Station Details ID: 095003 Name: BUSHY PARK (BUSHY PARK ESTATES) Lat: -42.71 Lon: 146.90 Height: 27.0 m
Data from the previous 72 hours. | See also: Recent months at Bushy Park
Date/Time
EDT
Temp
°C
App
Temp
°C
Dew
Point
Rel
Hum
%
Delta-T
°C
Wind Press
QNH
hPa
Press
MSL
hPa
Rain
since 9 am
mm
Dir
 
Spd
km/h
Gust
km/h
Spd
kts
Gust
kts
11/11:30pm 17.1 13.8 10.8 66 3.4 SSE 19 28 10 15 - - 0.0
11/11:00pm 17.2 13.6 10.7 65 3.5 SSE 20 28 11 15 - - 0.0
11/10:30pm 17.4 14.1 11.0 66 3.5 SSE 19 28 10 15 - - 0.0
11/10:00pm 17.5 14.5 10.7 64 3.6 SSE 17 24 9 13 - - 0.0
11/09:30pm 17.8 14.2 10.6 62 3.9 SSE 20 30 11 16 - - 0.0
11/09:00pm 17.8 13.8 10.4 62 4.0 SSE 22 32 12 17 - - 0.0
11/08:30pm 18.2 14.1 10.2 59 4.3 SSE 22 30 12 16 - - 0.0
11/08:00pm 18.7 14.3 10.4 58 4.5 SSE 24 32 13 17 - - 0.0
11/07:30pm 19.4 15.8 10.6 56 4.8 SE 20 32 11 17 - - 0.0
11/07:00pm 20.0 14.7 10.0 52 5.4 SE 28 37 15 20 - - 0.0
11/06:30pm 20.7 15.2 10.5 52 5.6 SSE 30 37 16 20 - - 0.0
11/06:00pm 21.7 15.3 9.5 45 6.6 SSE 33 46 18 25 - - 0.0
11/05:35pm 23.4 18.1 9.7 41 7.5 SSE 28 46 15 25 - - 0.0
11/05:30pm 23.7 19.0 9.4 40 7.8 S 24 33 13 18 - - 0.0
11/05:00pm 25.7 22.8 8.1 32 9.4 NW 13 19 7 10 - - 0.0
11/04:30pm 25.5 22.9 7.8 32 9.4 WNW 11 15 6 8 - - 0.0
11/04:00pm 25.0 22.7 7.3 32 9.3 N 9 17 5 9 - - 0.0
11/03:30pm 24.6 22.5 8.2 35 8.7 NNW 9 19 5 10 - - 0.0
11/03:00pm 24.5 21.5 7.8 34 8.8 N 13 22 7 12 - - 0.0
11/02:30pm 24.1 21.2 8.0 35 8.5 NNW 13 17 7 9 - - 0.0
11/02:00pm 24.3 22.3 8.8 37 8.3 WNW 9 15 5 8 - - 0.0
11/01:30pm 23.9 21.5 8.7 38 8.1 NNW 11 19 6 10 - - 0.0
11/01:00pm 23.4 21.3 8.2 37 8.1 NNW 9 19 5 10 - - 0.0
11/12:30pm 21.9 19.6 7.6 39 7.4 NW 9 17 5 9 - - 0.0
11/12:00pm 21.4 18.5 8.1 42 7.0 NW 13 19 7 10 - - 0.0
11/11:30am 20.3 17.4 8.1 45 6.3 WSW 13 20 7 11 - - 0.0
11/11:00am 21.4 17.8 8.4 43 6.8 WSW 17 24 9 13 - - 0.0
11/10:30am 20.7 18.2 8.4 45 6.4 WNW 11 19 6 10 - - 0.0
11/10:00am 18.5 13.9 8.1 50 5.3 SW 22 30 12 16 - - 0.0
11/09:30am 18.5 16.3 9.2 54 4.9 NNE 11 17 6 9 - - 0.0
11/09:00am 18.3 16.2 9.9 58 4.5 NNE 11 15 6 8 - - 0.0
11/08:30am 16.0 14.7 11.2 73 2.6 N 9 11 5 6 - - 0.0
11/08:00am 13.9 12.8 10.5 80 1.8 N 7 11 4 6 - - 0.0
11/07:30am 12.0 11.6 11.1 94 0.5 N 4 7 2 4 - - 0.0
11/07:00am 10.6 8.8 9.4 92 0.6 N 9 13 5 7 - - 0.0
11/06:30am 10.2 8.4 9.4 95 0.4 N 9 11 5 6 - - 0.0
11/06:00am 10.6 9.8 9.6 93 0.5 N 4 11 2 6 - - 0.0
11/05:30am 10.8 9.6 9.6 92 0.6 NNW 6 9 3 5 - - 0.0
11/05:00am 11.2 10.0 10.2 94 0.5 N 7 7 4 4 - - 0.0
11/04:30am 11.8 12.0 10.5 92 0.7 CALM 0 0 0 0 - - 0.0
11/04:00am 12.6 11.8 10.9 89 0.9 NNW 6 9 3 5 - - 0.0
11/03:30am 13.9 13.0 11.3 84 1.4 N 7 9 4 5 - - 0.0
11/03:00am 12.9 11.6 11.4 91 0.8 N 9 9 5 5 - - 0.0
11/02:30am 12.6 11.6 11.1 91 0.8 WSW 7 9 4 5 - - 0.0
11/02:00am 14.1 13.5 11.7 85 1.3 SSW 6 9 3 5 - - 0.0
11/01:30am 14.7 14.0 12.1 84 1.4 NNW 7 13 4 7 - - 0.0
11/01:00am 15.8 15.2 12.4 80 1.9 WSW 7 11 4 6 - - 0.0
11/12:30am 15.4 15.0 12.3 82 1.7 NE 6 7 3 4 - - 0.0
11/12:00am 14.7 14.2 11.9 83 1.5 WSW 6 7 3 4 - - 0.0
 
Date/Time
EDT
Temp
°C
App
Temp
°C
Dew
Point
Rel
Hum
%
Delta-T
°C
Wind Press
QNH
hPa
Press
MSL
hPa
Rain
since 9 am
mm
Dir
 
Spd
km/h
Gust
km/h
Spd
kts
Gust
kts
10/11:30pm 15.2 14.5 11.9 81 1.8 E 7 9 4 5 - - 0.0
10/11:00pm 15.2 14.5 12.1 82 1.7 NNE 7 9 4 5 - - 0.0
10/10:30pm 16.1 14.6 11.9 76 2.3 NNE 11 15 6 8 - - 0.0
10/10:00pm 17.0 14.9 11.1 68 3.2 WSW 13 24 7 13 - - 0.0
10/09:30pm 17.2 15.1 11.1 67 3.3 WNW 13 17 7 9 - - 0.0
10/09:00pm 18.3 15.4 11.0 62 4.0 WSW 17 28 9 15 - - 0.0
10/08:30pm 19.2 16.0 10.1 55 4.9 W 17 30 9 16 - - 0.0
10/08:00pm 19.3 15.8 10.3 56 4.8 WSW 19 28 10 15 - - 0.0
10/07:30pm 20.3 16.9 10.6 53 5.3 WSW 19 26 10 14 - - 0.0
10/07:00pm 20.7 18.7 10.3 51 5.6 W 11 20 6 11 - - 0.0
10/06:30pm 22.0 18.8 9.9 46 6.6 WSW 17 32 9 17 - - 0.0
10/06:00pm 21.8 19.0 10.1 47 6.4 W 15 24 8 13 - - 0.0
10/05:30pm 21.2 17.6 9.8 48 6.1 SW 19 28 10 15 - - 0.0
10/05:00pm 21.5 17.6 9.5 46 6.4 SW 20 28 11 15 - - 0.0
10/04:30pm 21.8 17.5 9.2 44 6.7 SW 22 32 12 17 - - 0.0
10/04:00pm 23.0 19.5 8.9 40 7.5 WSW 17 32 9 17 - - 0.0
10/03:30pm 23.5 19.7 7.6 36 8.3 NW 17 24 9 13 - - 0.0
10/03:00pm 22.8 18.3 8.4 39 7.6 WSW 22 33 12 18 - - 0.0
10/02:30pm 22.4 18.1 8.0 39 7.6 WSW 20 35 11 19 - - 0.0
10/02:00pm 23.0 19.2 9.2 41 7.4 WSW 19 30 10 16 - - 0.0
10/01:30pm 23.1 20.6 9.6 42 7.3 SW 13 19 7 10 - - 0.0
10/01:00pm 22.8 21.4 10.8 46 6.6 WSW 9 17 5 9 - - 0.0
10/12:30pm 21.2 18.9 9.1 46 6.4 NNE 11 17 6 9 - - 0.0
10/12:00pm 20.4 18.6 9.4 49 5.9 SSW 9 13 5 7 - - 0.0
10/11:30am 21.9 20.4 9.3 44 6.8 SE 7 11 4 6 - - 0.0
10/11:00am 19.7 17.9 9.6 52 5.4 NE 9 13 5 7 - - 0.0
10/10:30am 19.2 17.3 9.2 52 5.3 NNE 9 13 5 7 - - 0.0
10/10:00am 18.9 16.4 9.7 55 4.9 N 13 19 7 10 - - 0.0
10/09:30am 17.8 15.2 9.5 58 4.4 N 13 19 7 10 - - 0.0
10/09:00am 18.2 16.0 9.3 56 4.7 N 11 17 6 9 - - 0.0
10/08:30am 15.9 14.2 11.1 73 2.6 N 11 13 6 7 - - 0.0
10/08:00am 14.1 13.1 10.9 81 1.7 N 7 9 4 5 - - 0.0
10/07:30am 12.9 11.9 11.0 88 1.0 N 7 11 4 6 - - 0.0
10/07:00am 12.4 11.3 10.5 88 1.0 N 7 9 4 5 - - 0.0
10/06:30am 12.1 10.9 10.4 89 0.9 N 7 9 4 5 - - 0.0
10/06:00am 12.3 10.7 10.2 87 1.1 N 9 9 5 5 - - 0.0
10/05:30am 12.7 11.4 10.0 84 1.4 N 7 9 4 5 - - 0.0
10/05:00am 12.5 10.8 10.0 85 1.3 NNE 9 11 5 6 - - 0.0
10/04:30am 12.2 10.7 10.5 89 0.9 N 9 9 5 5 - - 0.0
10/04:00am 11.7 11.9 10.4 92 0.7 CALM 0 0 0 0 - - 0.0
10/03:30am 11.8 10.7 10.1 89 0.9 SSW 6 7 3 4 - - 0.0
10/03:00am 12.0 10.4 10.1 88 1.0 NW 9 11 5 6 - - 0.0
10/02:30am 12.2 11.3 10.5 89 0.9 NW 6 9 3 5 - - 0.0
10/02:00am 12.4 11.4 10.3 87 1.1 NW 6 7 3 4 - - 0.0
10/01:30am 13.0 12.1 10.7 86 1.2 SSW 6 9 3 5 - - 0.0
10/01:00am 13.7 13.3 11.1 84 1.4 W 4 7 2 4 - - 0.0
10/12:30am 14.9 14.5 11.0 77 2.1 NW 4 9 2 5 - - 0.0
10/12:00am 16.1 14.6 10.7 70 2.9 NW 9 11 5 6 - - 0.0
 
Date/Time
EDT
Temp
°C
App
Temp
°C
Dew
Point
Rel
Hum
%
Delta-T
°C
Wind Press
QNH
hPa
Press
MSL
hPa
Rain
since 9 am
mm
Dir
 
Spd
km/h
Gust
km/h
Spd
kts
Gust
kts
09/11:30pm 16.4 15.6 11.0 70 2.9 WSW 6 9 3 5 - - 0.0
09/11:00pm 17.2 16.7 10.7 65 3.5 NNE 4 9 2 5 - - 0.0
09/10:30pm 17.7 16.7 10.9 64 3.7 SW 7 13 4 7 - - 0.0
09/10:00pm 19.7 17.9 9.6 52 5.4 WSW 9 13 5 7 - - 0.0
09/09:30pm 20.9 18.9 10.1 50 5.8 S 11 17 6 9 - - 0.0
09/09:00pm 22.2 19.5 10.2 46 6.5 WSW 15 30 8 16 - - 0.0
09/08:30pm 23.6 20.5 10.3 43 7.3 SSW 17 24 9 13 - - 0.0
09/08:00pm 24.9 21.9 7.7 33 9.1 WSW 13 22 7 12 - - 0.0
09/07:30pm 25.5 22.1 6.1 29 10.0 WSW 13 24 7 13 - - 0.0
09/07:00pm 26.5 22.7 5.8 26 10.7 WSW 15 26 8 14 - - 0.0
09/06:30pm 27.0 22.9 4.1 23 11.5 SW 15 24 8 13 - - 0.0
09/06:00pm 28.3 23.8 4.3 21 12.2 WSW 17 24 9 13 - - 0.0
09/05:30pm 28.8 24.6 3.6 20 12.7 SW 15 30 8 16 - - 0.0
09/05:00pm 28.4 23.2 3.5 20 12.5 WSW 20 33 11 18 - - 0.0
09/04:30pm 29.7 24.0 2.7 17 13.5 WSW 22 35 12 19 - - 0.0
09/04:00pm 29.2 23.7 2.0 17 13.4 SSW 20 28 11 15 - - 0.0
09/03:30pm 29.5 25.2 6.9 24 12.1 NNE 19 24 10 13 - - 0.0
09/03:00pm 28.4 25.9 6.7 25 11.5 NW 9 15 5 8 - - 0.0
09/02:30pm 27.4 24.7 7.3 28 10.7 NE 11 17 6 9 - - 0.0
09/02:00pm 26.2 23.5 7.3 30 10.0 ENE 11 15 6 8 - - 0.0
09/01:30pm 25.8 22.8 7.7 31 9.6 NNE 13 24 7 13 - - 0.0
09/12:00pm 22.3 19.9 6.8 36 8.0 NE 9 19 5 10 - - 0.0
09/11:30am 21.3 19.4 7.7 41 7.1 NW 7 11 4 6 - - 0.0
09/11:00am 20.2 17.6 7.9 45 6.4 N 11 19 6 10 - - 0.0
09/10:30am 20.1 17.7 8.5 47 6.1 N 11 17 6 9 - - 0.0
09/10:00am 19.9 17.7 9.2 50 5.7 ENE 11 15 6 8 - - 0.0
09/09:30am 18.6 16.7 8.9 53 5.1 NNE 9 11 5 6 - - 0.0
09/09:00am 17.6 15.9 9.7 60 4.2 NNE 9 17 5 9 - - 0.0
09/08:30am 16.4 15.1 9.1 62 3.8 N 6 7 3 4 - - 0.0
09/08:00am 15.1 13.6 9.3 68 3.0 N 7 9 4 5 - - 0.0
09/07:30am 13.3 13.4 10.0 80 1.7 CALM 0 6 0 3 - - 0.0
09/07:00am 10.9 9.9 8.9 87 1.0 ESE 4 9 2 5 - - 0.0
09/06:30am 10.3 8.4 8.9 91 0.7 NW 9 11 5 6 - - 0.0
09/06:00am 11.1 9.8 9.1 87 1.0 N 6 15 3 8 - - 0.0
09/05:30am 11.7 9.9 9.3 85 1.2 WSW 9 13 5 7 - - 0.0
09/05:00am 13.2 11.3 9.1 76 2.1 W 9 13 5 7 - - 0.0
09/04:30am 13.6 11.5 9.7 77 2.0 ENE 11 17 6 9 - - 0.0
09/04:00am 14.3 12.6 9.7 74 2.4 NW 9 13 5 7 - - 0.0
09/03:30am 15.1 13.1 10.2 72 2.6 NW 11 17 6 9 - - 0.0
09/03:00am 16.4 14.5 9.1 62 3.8 NW 9 15 5 8 - - 0.0
09/02:30am 17.2 15.4 9.4 60 4.1 WNW 9 19 5 10 - - 0.0
09/02:00am 17.4 14.9 9.7 60 4.0 NNW 13 17 7 9 - - 0.0
09/01:30am 17.3 15.2 9.8 61 3.9 NNW 11 15 6 8 - - 0.0
09/01:00am 17.8 15.9 9.0 56 4.6 NW 9 11 5 6 - - 0.0
09/12:30am 17.9 15.7 9.4 57 4.5 W 11 17 6 9 - - 0.0
09/12:00am 18.2 16.3 8.9 54 4.8 W 9 15 5 8 - - 0.0

Other Formats:

Comma delimited format used in spreadsheet applications
http://www.bom.gov.au/fwo/IDT60801/IDT60801.94964.axf

JavaScript Object Notation format (JSON) in row-major order
http://www.bom.gov.au/fwo/IDT60801/IDT60801.94964.json